Time;durP1;ratioP1;P1;durP2;ratioP2;P2;SDS_P1;SDS_P2;PMS_P1;PMS_P2;Temp;Humidity;BMP_temperature;BMP_pressure;BME280_temperature;BME280_humidity;BME280_pressure;Samples;Min_cycle;Max_cycle;Signal;HPM_P1;HPM_P2
2021/07/07 00:02:13;;;;;;;5.42;3.47;;;;;;;20.75;74.35;100593.23;1757717;81;20956;-75
2021/07/07 00:04:40;;;;;;;4.97;3.37;;;;;;;20.73;74.46;100589.89;1758172;80;20920;-75
2021/07/07 00:07:09;;;;;;;5.95;3.22;;;;;;;20.73;74.36;100591.22;1757778;81;21102;-75
2021/07/07 00:09:37;;;;;;;3.25;2.95;;;;;;;20.73;74.03;100585.89;1757902;81;21422;-75
2021/07/07 00:12:04;;;;;;;4.60;3.47;;;;;;;20.73;74.13;100590.39;1757875;81;21456;-75
2021/07/07 00:14:31;;;;;;;4.03;2.67;;;;;;;20.73;73.75;100588.55;1758145;81;21450;-75
2021/07/07 00:17:00;;;;;;;4.78;3.80;;;;;;;20.71;73.37;100598.54;1757799;81;20888;-75
2021/07/07 00:19:27;;;;;;;5.17;3.52;;;;;;;20.70;73.46;100598.22;1757731;81;20940;-76
2021/07/07 00:21:58;;;;;;;3.35;2.72;;;;;;;20.72;73.46;100603.36;1758054;81;21407;-74
2021/07/07 00:24:22;;;;;;;4.80;3.20;;;;;;;20.72;73.50;100603.36;1757497;81;21994;-76
2021/07/07 00:26:49;;;;;;;3.98;3.00;;;;;;;20.74;73.51;100604.88;1757702;81;20877;-74
2021/07/07 00:29:17;;;;;;;5.50;3.65;;;;;;;20.76;73.25;100598.89;1757725;81;20963;-73
2021/07/07 00:31:43;;;;;;;3.55;3.33;;;;;;;20.77;72.97;100601.91;1758135;80;20932;-74
2021/07/07 00:34:10;;;;;;;3.47;3.27;;;;;;;20.76;72.82;100604.22;1758020;80;20904;-74
2021/07/07 00:36:37;;;;;;;3.67;3.37;;;;;;;20.77;72.94;100605.08;1758239;81;21180;-73
2021/07/07 00:39:04;;;;;;;5.00;3.27;;;;;;;20.78;73.10;100603.56;1757912;81;21529;-74
2021/07/07 00:41:31;;;;;;;3.67;3.00;;;;;;;20.79;72.90;100609.75;1757936;80;21007;-74
2021/07/07 00:43:59;;;;;;;4.10;2.60;;;;;;;20.82;72.71;100610.76;1757863;81;20857;-74
2021/07/07 00:46:25;;;;;;;7.37;3.22;;;;;;;20.83;72.16;100609.75;1758187;80;20928;-74
2021/07/07 00:48:53;;;;;;;6.47;3.25;;;;;;;20.82;72.16;100610.25;1757914;81;21186;-73
2021/07/07 00:51:21;;;;;;;5.12;2.83;;;;;;;20.82;72.11;100608.09;1757864;80;20916;-73
2021/07/07 00:53:48;;;;;;;7.03;2.98;;;;;;;20.81;72.00;100609.07;1757883;80;20973;-74
2021/07/07 00:56:15;;;;;;;4.40;2.70;;;;;;;20.80;71.46;100610.08;1757954;81;21477;-74
2021/07/07 00:58:42;;;;;;;4.45;2.80;;;;;;;20.80;71.70;100615.41;1757952;81;21405;-74
2021/07/07 01:01:09;;;;;;;4.53;3.37;;;;;;;20.81;71.87;100610.41;1757982;81;21486;-74
2021/07/07 01:03:36;;;;;;;3.08;2.80;;;;;;;20.81;71.81;100614.41;1757942;81;20975;-74
2021/07/07 01:06:03;;;;;;;4.67;2.87;;;;;;;20.83;71.90;100612.41;1758001;81;21493;-74
2021/07/07 01:08:30;;;;;;;2.35;2.15;;;;;;;20.81;71.73;100617.92;1757890;81;21038;-73
2021/07/07 01:10:58;;;;;;;2.92;2.60;;;;;;;20.81;71.59;100619.73;1757928;81;20927;-73
2021/07/07 01:13:24;;;;;;;2.80;2.35;;;;;;;20.81;71.70;100622.40;1757939;81;21670;-74
2021/07/07 01:15:52;;;;;;;3.85;2.10;;;;;;;20.81;71.73;100623.73;1757858;81;20943;-73
2021/07/07 01:18:20;;;;;;;3.08;2.47;;;;;;;20.79;71.92;100629.75;1757917;81;20872;-73
2021/07/07 01:20:47;;;;;;;3.12;2.60;;;;;;;20.80;71.33;100630.07;1757828;80;20971;-73
2021/07/07 01:23:14;;;;;;;3.62;2.85;;;;;;;20.80;71.16;100632.73;1758298;81;20927;-73
2021/07/07 01:25:40;;;;;;;5.53;2.77;;;;;;;20.78;71.28;100632.05;1757941;81;21110;-72
2021/07/07 01:28:07;;;;;;;4.50;2.87;;;;;;;20.76;71.25;100634.88;1758054;81;20972;-78
2021/07/07 01:30:34;;;;;;;4.08;2.42;;;;;;;20.76;70.83;100638.87;1757931;81;20975;-75
2021/07/07 01:33:01;;;;;;;4.28;2.37;;;;;;;20.75;70.92;100639.05;1757993;81;20952;-75
2021/07/07 01:35:28;;;;;;;2.55;2.37;;;;;;;20.73;70.75;100639.70;1757892;81;20873;-73
2021/07/07 01:37:55;;;;;;;8.28;3.08;;;;;;;20.70;70.60;100640.85;1758282;81;21501;-75
2021/07/07 01:40:24;;;;;;;3.12;2.83;;;;;;;20.67;70.60;100641.98;1757814;81;20924;-76
2021/07/07 01:42:51;;;;;;;3.87;2.05;;;;;;;20.65;71.00;100639.14;1758342;80;21007;-75
2021/07/07 01:45:21;;;;;;;3.33;2.50;;;;;;;20.62;71.02;100646.95;1758112;81;20936;-76
2021/07/07 01:47:50;;;;;;;5.72;2.55;;;;;;;20.61;70.83;100640.44;1758326;80;20939;-73
2021/07/07 01:50:18;;;;;;;6.35;2.83;;;;;;;20.61;70.65;100646.63;1747998;81;22014;-75
2021/07/07 01:52:45;;;;;;;4.65;2.35;;;;;;;20.61;70.45;100639.97;1744755;82;20968;-75
2021/07/07 01:55:15;;;;;;;5.83;2.45;;;;;;;20.61;70.59;100649.77;1744632;82;20857;-73
2021/07/07 01:57:49;;;;;;;4.42;2.98;;;;;;;20.61;70.62;100645.30;1744877;82;20861;-74
2021/07/07 02:00:22;;;;;;;9.85;2.47;;;;;;;20.65;70.92;100645.80;1743919;81;20830;-74
2021/07/07 02:02:51;;;;;;;5.47;2.42;;;;;;;20.68;70.83;100649.50;1744574;81;21151;-74
2021/07/07 02:05:23;;;;;;;2.80;2.52;;;;;;;20.70;70.46;100652.84;1744724;81;20866;-75
2021/07/07 02:07:50;;;;;;;3.02;2.50;;;;;;;20.70;70.07;100656.34;1744800;81;20956;-76
2021/07/07 02:10:17;;;;;;;4.80;2.87;;;;;;;20.69;70.25;100649.33;1744502;82;20970;-74
2021/07/07 02:12:46;;;;;;;5.87;2.60;;;;;;;20.69;70.22;100647.98;1744566;81;20921;-75
2021/07/07 02:15:30;;;;;;;5.08;2.90;;;;;;;20.69;70.38;100654.66;1744617;82;21519;-75
2021/07/07 02:17:58;;;;;;;4.85;3.10;;;;;;;20.68;70.49;100651.66;1744888;80;21480;-75
2021/07/07 02:20:29;;;;;;;4.62;2.35;;;;;;;20.66;70.39;100649.65;1744770;81;20928;-75
2021/07/07 02:22:56;;;;;;;6.62;2.67;;;;;;;20.66;70.30;100651.48;1744593;81;20936;-75
2021/07/07 02:25:27;;;;;;;7.47;2.35;;;;;;;20.63;70.38;100649.11;1744931;82;20928;-75
2021/07/07 02:27:54;;;;;;;6.25;2.95;;;;;;;20.63;70.58;100653.11;1744583;80;22729;-75
2021/07/07 02:30:25;;;;;;;4.58;2.50;;;;;;;20.60;70.52;100650.27;1744458;81;21414;-75
2021/07/07 02:32:53;;;;;;;3.77;2.90;;;;;;;20.59;70.35;100643.78;1744745;82;20932;-75
2021/07/07 02:35:28;;;;;;;5.58;2.62;;;;;;;20.57;70.10;100651.92;1744856;81;21462;-75
2021/07/07 02:37:56;;;;;;;5.25;3.00;;;;;;;20.56;70.32;100654.20;1744705;82;20960;-75
2021/07/07 02:40:24;;;;;;;4.03;2.40;;;;;;;20.57;70.46;100660.42;1744875;82;21095;-75
2021/07/07 02:42:51;;;;;;;4.60;2.10;;;;;;;20.58;70.46;100656.75;1744545;81;21380;-75
2021/07/07 02:45:18;;;;;;;5.40;2.85;;;;;;;20.59;70.36;100661.94;1744834;82;20988;-75
2021/07/07 02:47:45;;;;;;;6.78;2.65;;;;;;;20.59;70.30;100663.77;1708794;83;20893;-75
2021/07/07 02:50:14;;;;;;;4.72;2.12;;;;;;;20.60;70.28;100660.09;1708856;82;20869;-75
2021/07/07 02:52:44;;;;;;;3.30;1.77;;;;;;;20.61;70.38;100664.42;1708791;82;21131;-74
2021/07/07 02:55:12;;;;;;;3.67;2.17;;;;;;;20.61;70.58;100668.42;1708973;84;20888;-73
2021/07/07 02:57:58;;;;;;;7.50;2.27;;;;;;;20.62;70.92;100674.11;1759030;81;20916;-73
2021/07/07 03:00:41;;;;;;;6.15;2.60;;;;;;;20.62;71.10;100668.27;1744891;82;21481;-73
2021/07/07 03:03:10;;;;;;;4.80;2.40;;;;;;;20.62;70.93;100671.44;1744671;81;20925;-73
2021/07/07 03:05:43;;;;;;;3.12;2.72;;;;;;;20.60;70.78;100675.58;1744879;82;21124;-73
2021/07/07 03:08:11;;;;;;;3.00;2.70;;;;;;;20.58;70.84;100676.23;1744683;81;21031;-75
2021/07/07 03:10:40;;;;;;;4.25;2.30;;;;;;;20.58;71.13;100686.89;1744856;82;21458;-73
2021/07/07 03:13:08;;;;;;;5.72;2.95;;;;;;;20.56;71.41;100691.50;1744068;81;20924;-73
2021/07/07 03:15:37;;;;;;;2.72;2.50;;;;;;;20.57;72.00;100687.06;1744844;82;20928;-73
2021/07/07 03:18:04;;;;;;;3.22;2.20;;;;;;;20.58;72.00;100692.72;1744781;81;21203;-72
2021/07/07 03:20:31;;;;;;;3.58;2.40;;;;;;;20.57;72.02;100695.06;1744872;82;21399;-73
2021/07/07 03:22:58;;;;;;;4.90;2.62;;;;;;;20.54;71.74;100700.65;1744624;82;20971;-73
2021/07/07 03:25:25;;;;;;;6.67;2.95;;;;;;;20.50;71.80;100697.48;1744721;82;21004;-74
2021/07/07 03:27:53;;;;;;;7.97;3.72;;;;;;;20.47;71.44;100699.09;1744682;81;21256;-74
2021/07/07 03:30:20;;;;;;;6.55;2.98;;;;;;;20.41;71.60;100701.90;1744614;81;21196;-74
2021/07/07 03:32:47;;;;;;;8.88;3.77;;;;;;;20.36;71.88;100697.51;1744496;82;20964;-74
2021/07/07 03:35:14;;;;;;;5.70;2.80;;;;;;;20.32;72.04;100700.16;1744521;81;20933;-73
2021/07/07 03:37:41;;;;;;;7.60;3.72;;;;;;;20.26;72.20;100708.26;1744598;82;20897;-74
2021/07/07 03:40:11;;;;;;;5.65;3.12;;;;;;;20.23;72.57;100715.23;1744729;81;20920;-73
2021/07/07 03:42:39;;;;;;;5.92;3.20;;;;;;;20.17;72.84;100714.50;1744752;81;21309;-74
2021/07/07 03:45:11;;;;;;;8.90;3.37;;;;;;;20.14;73.68;100727.27;1744536;81;20976;-76
2021/07/07 03:47:41;;;;;;;4.17;3.22;;;;;;;20.12;73.98;100726.58;1744950;80;20924;-73
2021/07/07 03:50:09;;;;;;;4.37;3.30;;;;;;;20.08;74.40;100735.39;1749147;81;20921;-73
2021/07/07 03:52:37;;;;;;;5.83;3.33;;;;;;;20.06;74.70;100728.87;1757836;81;20955;-73
2021/07/07 03:55:13;;;;;;;6.85;2.67;;;;;;;20.04;74.86;100733.51;1757912;81;21330;-73
2021/07/07 03:57:40;;;;;;;3.45;2.60;;;;;;;20.03;75.09;100738.50;1757872;81;21434;-72
2021/07/07 04:00:09;;;;;;;3.45;2.85;;;;;;;20.01;75.03;100733.82;1757810;81;21007;-74
2021/07/07 04:02:41;;;;;;;4.90;3.22;;;;;;;20.01;75.18;100735.16;1757960;81;21361;-73
2021/07/07 04:05:09;;;;;;;3.27;2.70;;;;;;;20.02;75.06;100735.98;1757984;80;21406;-72
2021/07/07 04:07:36;;;;;;;4.03;2.58;;;;;;;19.99;75.06;100735.80;1757901;81;21139;-72
2021/07/07 04:10:08;;;;;;;9.40;2.90;;;;;;;19.99;74.82;100741.63;1757874;80;20865;-72
2021/07/07 04:12:36;;;;;;;3.08;2.62;;;;;;;19.94;74.84;100742.04;1757998;81;20979;-73
2021/07/07 04:15:08;;;;;;;5.67;2.83;;;;;;;19.92;75.17;100740.52;1757943;81;20927;-74
2021/07/07 04:17:35;;;;;;;4.37;2.83;;;;;;;19.91;75.56;100739.69;1758114;80;20936;-73
2021/07/07 04:20:04;;;;;;;5.53;2.67;;;;;;;19.91;75.64;100742.86;1758116;80;21810;-74
2021/07/07 04:22:31;;;;;;;3.67;2.95;;;;;;;19.92;75.63;100743.18;1757959;81;21346;-74
2021/07/07 04:24:58;;;;;;;4.20;3.10;;;;;;;19.93;75.77;100747.53;1757907;81;20916;-74
2021/07/07 04:27:25;;;;;;;4.78;3.02;;;;;;;19.96;75.80;100751.22;1757986;81;21469;-74
2021/07/07 04:29:52;;;;;;;5.72;3.25;;;;;;;20.00;75.51;100751.27;1758205;81;20915;-73
2021/07/07 04:32:19;;;;;;;5.58;3.45;;;;;;;20.00;75.58;100750.77;1757982;81;21472;-73
2021/07/07 04:34:47;;;;;;;7.95;3.30;;;;;;;20.01;75.64;100748.46;1757912;81;20976;-73
2021/07/07 04:37:16;;;;;;;6.30;2.87;;;;;;;20.05;75.50;100747.18;1758032;81;20893;-72
2021/07/07 04:39:42;;;;;;;4.95;3.05;;;;;;;20.11;75.56;100750.22;1758024;80;21015;-73
2021/07/07 04:42:09;;;;;;;4.87;3.40;;;;;;;20.16;75.22;100751.42;1758132;81;20881;-75
2021/07/07 04:44:36;;;;;;;3.58;3.27;;;;;;;20.20;75.17;100747.48;1758233;81;21497;-75
2021/07/07 04:47:05;;;;;;;4.67;2.80;;;;;;;20.27;75.18;100754.36;1757985;81;21402;-76
2021/07/07 04:49:32;;;;;;;3.22;2.77;;;;;;;20.33;75.10;100759.09;1757961;81;20853;-76
2021/07/07 04:51:59;;;;;;;4.22;3.42;;;;;;;20.40;74.80;100765.48;1757945;81;21435;-76
2021/07/07 04:54:25;;;;;;;7.00;3.98;;;;;;;20.47;74.71;100760.38;1758334;81;20979;-76
2021/07/07 04:56:52;;;;;;;4.75;3.40;;;;;;;20.54;74.69;100761.93;1757962;81;21528;-75
2021/07/07 04:59:20;;;;;;;11.38;3.80;;;;;;;20.61;74.92;100767.02;1757975;80;20923;-74
2021/07/07 05:01:47;;;;;;;4.67;2.85;;;;;;;20.71;74.17;100774.44;1758041;81;21425;-75
2021/07/07 05:04:14;;;;;;;6.30;3.67;;;;;;;20.77;73.84;100770.33;1757895;80;21003;-74
2021/07/07 05:06:41;;;;;;;6.42;3.17;;;;;;;20.81;73.19;100775.67;1758034;80;20956;-74
2021/07/07 05:09:08;;;;;;;11.33;3.52;;;;;;;20.83;73.22;100778.55;1757904;81;20913;-75
2021/07/07 05:11:36;;;;;;;6.80;3.98;;;;;;;20.84;73.25;100780.70;1757919;81;20999;-74
2021/07/07 05:14:03;;;;;;;5.60;3.47;;;;;;;20.81;72.78;100785.86;1758267;81;20920;-75
2021/07/07 05:16:31;;;;;;;5.25;3.40;;;;;;;20.80;72.78;100789.50;1758022;81;20936;-77
2021/07/07 05:19:00;;;;;;;6.17;4.25;;;;;;;20.76;72.59;100784.12;1696128;82;21405;-78
2021/07/07 05:21:27;;;;;;;7.42;3.35;;;;;;;20.75;72.52;100791.80;1722104;82;21504;-78
2021/07/07 05:23:55;;;;;;;3.72;3.37;;;;;;;20.75;72.77;100788.30;1721801;83;20947;-77
2021/07/07 05:26:22;;;;;;;5.35;3.83;;;;;;;20.74;72.92;100791.94;1721955;82;21393;-79
2021/07/07 05:28:49;;;;;;;4.80;3.25;;;;;;;20.75;73.37;100803.80;1719395;83;20941;-74
2021/07/07 05:31:16;;;;;;;5.60;3.08;;;;;;;20.80;73.02;100798.00;1722200;83;20983;-80
2021/07/07 05:33:44;;;;;;;4.83;3.35;;;;;;;20.81;73.05;100796.99;1721889;83;21114;-79
2021/07/07 05:36:11;;;;;;;5.55;3.02;;;;;;;20.81;72.89;100802.33;1721905;82;21010;-79
2021/07/07 05:38:37;;;;;;;6.25;3.45;;;;;;;20.79;72.98;100810.50;1722003;83;21513;-80
2021/07/07 05:41:04;;;;;;;5.62;3.87;;;;;;;20.80;73.33;100802.83;1722533;83;20907;-80
2021/07/07 05:43:31;;;;;;;4.70;3.12;;;;;;;20.82;73.06;100806.68;1722068;83;20857;-81
2021/07/07 05:45:58;;;;;;;6.80;3.30;;;;;;;20.83;72.91;100819.00;1722108;82;21152;-77
2021/07/07 05:48:26;;;;;;;4.00;3.70;;;;;;;20.83;72.92;100817.20;1721925;83;20880;-77
2021/07/07 05:50:53;;;;;;;5.83;3.33;;;;;;;20.83;72.92;100817.20;1719862;82;20892;-78
2021/07/07 05:53:20;;;;;;;5.35;3.50;;;;;;;20.82;73.03;100815.51;1716507;83;20923;-78
2021/07/07 05:55:47;;;;;;;6.80;4.05;;;;;;;20.82;73.04;100818.17;1716599;83;20936;-78
2021/07/07 05:58:14;;;;;;;4.47;3.20;;;;;;;20.86;72.79;100821.38;1716485;83;21522;-77
2021/07/07 06:00:41;;;;;;;3.90;3.40;;;;;;;20.88;72.61;100827.39;1716787;83;20884;-76
2021/07/07 06:03:09;;;;;;;5.70;3.22;;;;;;;20.90;72.66;100830.25;1716493;82;20904;-76
2021/07/07 06:05:35;;;;;;;5.35;3.60;;;;;;;20.95;72.89;100826.28;1688572;83;20947;-75
2021/07/07 06:08:06;;;;;;;7.05;3.75;;;;;;;21.01;72.49;100825.17;1716590;83;21125;-77
2021/07/07 06:10:33;;;;;;;4.42;3.27;;;;;;;21.08;72.40;100823.55;1716742;82;21566;-76
2021/07/07 06:13:00;;;;;;;5.67;4.10;;;;;;;21.17;72.08;100819.62;1716478;83;20988;-70
2021/07/07 06:15:31;;;;;;;5.72;4.20;;;;;;;21.25;72.27;100823.15;1716479;83;21563;-73
2021/07/07 06:17:59;;;;;;;6.45;3.77;;;;;;;21.32;72.11;100827.36;1716368;82;20987;-79
2021/07/07 06:20:26;;;;;;;4.17;3.87;;;;;;;21.38;72.07;100824.58;1716305;83;20986;-72
2021/07/07 06:22:53;;;;;;;6.40;3.85;;;;;;;21.41;71.85;100830.48;1716518;83;21965;-69
2021/07/07 06:25:20;;;;;;;6.70;5.03;;;;;;;21.44;72.03;100839.48;1716568;83;20876;-72
2021/07/07 06:27:47;;;;;;;7.92;4.22;;;;;;;21.45;71.63;100842.48;1716449;82;20947;-71
2021/07/07 06:30:17;;;;;;;7.87;4.40;;;;;;;21.48;71.95;100844.02;1716393;82;20923;-73
2021/07/07 06:32:45;;;;;;;7.72;4.40;;;;;;;21.48;71.94;100847.52;1716365;83;20936;-73
2021/07/07 06:35:12;;;;;;;6.80;4.15;;;;;;;21.53;72.04;100842.54;1716397;83;21956;-74
2021/07/07 06:37:39;;;;;;;5.47;4.33;;;;;;;21.58;71.63;100842.56;1716327;83;20848;-72
2021/07/07 06:40:07;;;;;;;4.80;4.33;;;;;;;21.59;71.85;100849.09;1716530;83;20903;-73
2021/07/07 06:42:34;;;;;;;6.25;4.53;;;;;;;21.62;71.75;100849.27;1716413;83;20880;-72
2021/07/07 06:45:01;;;;;;;5.08;4.58;;;;;;;21.65;71.86;100848.94;1716418;83;20845;-72
2021/07/07 06:47:28;;;;;;;5.10;4.12;;;;;;;21.68;72.05;100851.31;1716604;82;21504;-73
2021/07/07 06:49:55;;;;;;;5.47;4.25;;;;;;;21.71;71.60;100856.31;1716377;82;20963;-72
2021/07/07 06:52:22;;;;;;;5.65;4.22;;;;;;;21.71;71.82;100855.81;1709600;83;20944;-73
2021/07/07 06:54:49;;;;;;;6.53;3.92;;;;;;;21.73;71.96;100862.34;1708671;82;21410;-71
2021/07/07 06:57:16;;;;;;;4.72;4.15;;;;;;;21.78;71.49;100864.02;1708772;82;21003;-73
2021/07/07 06:59:43;;;;;;;4.08;3.70;;;;;;;21.83;71.39;100867.08;1708779;84;21558;-72
2021/07/07 07:02:10;;;;;;;6.85;4.85;;;;;;;21.91;71.38;100876.44;1708665;84;20975;-72
2021/07/07 07:04:37;;;;;;;9.40;5.28;;;;;;;22.02;71.04;100874.49;1708835;84;21413;-71
2021/07/07 07:07:04;;;;;;;8.68;5.08;;;;;;;22.13;70.61;100879.03;1708753;84;20940;-71
2021/07/07 07:09:31;;;;;;;4.17;3.77;;;;;;;22.28;70.42;100878.47;1708954;83;20880;-72
2021/07/07 07:11:58;;;;;;;8.10;5.00;;;;;;;22.43;70.13;100880.82;1708773;84;21080;-72
2021/07/07 07:14:25;;;;;;;5.20;4.72;;;;;;;22.56;70.08;100881.19;1708635;84;20983;-71
2021/07/07 07:16:52;;;;;;;4.53;4.12;;;;;;;22.75;69.70;100887.26;1709202;84;20956;-72
2021/07/07 07:19:19;;;;;;;7.60;4.60;;;;;;;22.91;69.43;100885.92;1708658;84;20940;-73
2021/07/07 07:21:45;;;;;;;6.45;4.67;;;;;;;23.07;68.67;100882.95;1708989;84;20904;-70
2021/07/07 07:24:12;;;;;;;8.18;4.50;;;;;;;23.23;67.54;100887.45;1708872;84;21660;-72
2021/07/07 07:26:39;;;;;;;7.20;4.28;;;;;;;23.34;67.04;100897.34;1708797;84;20892;-72
2021/07/07 07:29:07;;;;;;;5.58;4.25;;;;;;;23.44;66.44;100891.80;1708747;83;20948;-72
2021/07/07 07:31:34;;;;;;;8.68;4.37;;;;;;;23.52;65.72;100894.47;1708808;84;20936;-72
2021/07/07 07:34:01;;;;;;;4.55;4.12;;;;;;;23.58;66.23;100889.75;1709110;84;20936;-71
2021/07/07 07:36:27;;;;;;;9.38;4.40;;;;;;;23.62;66.49;100891.59;1709192;84;21182;-72
2021/07/07 07:39:00;;;;;;;7.03;4.28;;;;;;;23.67;66.81;100891.08;1708743;82;20963;-72
2021/07/07 07:41:30;;;;;;;5.08;3.80;;;;;;;23.71;66.73;100895.09;1744915;82;20953;-72
2021/07/07 07:43:58;;;;;;;4.08;3.65;;;;;;;23.73;66.31;100897.09;1744825;80;20912;-73
2021/07/07 07:46:30;;;;;;;5.72;3.70;;;;;;;23.75;65.94;100896.45;1744615;82;21108;-72
2021/07/07 07:48:59;;;;;;;6.58;4.60;;;;;;;23.75;65.84;100900.47;1744740;82;21111;-72
2021/07/07 07:51:27;;;;;;;5.17;4.75;;;;;;;23.72;65.99;100898.95;1749031;80;20939;-71
2021/07/07 07:53:53;;;;;;;7.67;4.15;;;;;;;23.68;65.92;100906.12;1757850;81;20881;-71
2021/07/07 07:56:20;;;;;;;7.67;4.60;;;;;;;23.62;65.87;100914.35;1758231;81;21359;-72
2021/07/07 07:58:48;;;;;;;4.47;4.08;;;;;;;23.57;66.22;100917.54;1758007;81;20889;-73
2021/07/07 08:01:14;;;;;;;4.95;4.45;;;;;;;23.52;66.02;100919.91;1757957;81;21019;-72
2021/07/07 08:06:05;;;;;;;5.95;3.85;;;;;;;23.54;66.84;100925.92;1816416;79;22606;-73
2021/07/07 08:08:32;;;;;;;7.37;4.78;;;;;;;23.48;66.32;100933.80;1789494;80;20928;-73
2021/07/07 08:11:01;;;;;;;4.83;4.40;;;;;;;23.45;66.37;100934.11;1789466;80;21010;-73
2021/07/07 08:13:28;;;;;;;6.53;4.75;;;;;;;23.41;66.94;100934.11;1789371;80;20923;-74
2021/07/07 08:15:55;;;;;;;9.78;4.80;;;;;;;23.38;66.30;100936.12;1789645;80;21381;-74
2021/07/07 08:18:21;;;;;;;9.60;4.80;;;;;;;23.35;66.73;100934.30;1789497;80;20955;-73
2021/07/07 08:20:49;;;;;;;8.95;4.95;;;;;;;23.36;66.54;100938.63;1789527;80;20856;-74
2021/07/07 08:23:19;;;;;;;12.43;6.33;;;;;;;23.38;66.66;100936.12;1789521;80;21525;-74
2021/07/07 08:25:47;;;;;;;10.82;6.00;;;;;;;23.44;66.28;100938.64;1789604;80;20932;-73
2021/07/07 08:28:14;;;;;;;11.95;6.12;;;;;;;23.55;66.23;100940.14;1789451;80;20927;-74
2021/07/07 08:30:41;;;;;;;7.87;5.90;;;;;;;23.66;66.01;100942.47;1789498;80;20903;-74
2021/07/07 08:33:09;;;;;;;8.70;6.92;;;;;;;23.77;65.63;100940.80;1789495;80;20923;-74
2021/07/07 08:35:38;;;;;;;11.18;7.22;;;;;;;23.82;65.50;100951.52;1789828;80;21753;-74
2021/07/07 08:38:05;;;;;;;8.08;6.45;;;;;;;23.84;64.75;100950.33;1789417;80;20908;-73
2021/07/07 08:40:32;;;;;;;10.45;6.15;;;;;;;23.81;65.20;100951.16;1789841;80;20939;-83
2021/07/07 08:42:59;;;;;;;8.80;5.70;;;;;;;23.81;65.77;100948.48;1789570;80;20920;-74
2021/07/07 08:45:26;;;;;;;10.65;6.45;;;;;;;23.82;65.60;100950.17;1789805;80;20892;-74
2021/07/07 08:47:53;;;;;;;8.88;6.30;;;;;;;23.83;65.44;100951.83;1789441;80;21100;-71
2021/07/07 08:50:24;;;;;;;10.23;7.10;;;;;;;23.79;64.67;100954.86;1789435;79;21444;-69
2021/07/07 08:52:51;;;;;;;9.60;7.37;;;;;;;23.76;65.02;100956.52;1789061;80;20916;-73
2021/07/07 08:55:18;;;;;;;12.07;7.20;;;;;;;23.74;65.51;100957.16;1789661;80;20924;-72
2021/07/07 08:57:46;;;;;;;8.23;6.83;;;;;;;23.75;64.89;100957.55;1789425;80;21354;-72
2021/07/07 09:00:24;;;;;;;12.47;6.75;;;;;;;23.74;64.99;100953.14;1789463;80;21141;-73
2021/07/07 09:03:03;;;;;;;7.25;6.40;;;;;;;23.78;65.63;100953.69;1789032;80;20884;-77
2021/07/07 09:05:30;;;;;;;8.50;6.85;;;;;;;23.86;66.27;100954.19;1780047;80;21414;-80
2021/07/07 09:08:07;;;;;;;13.15;6.58;;;;;;;23.92;65.77;100954.34;1776036;80;21015;-72
2021/07/07 09:10:34;;;;;;;8.53;6.28;;;;;;;23.96;65.40;100950.80;1776218;80;20936;-71
2021/07/07 09:13:11;;;;;;;10.18;6.37;;;;;;;23.94;64.75;100949.62;1775811;80;21146;-71
2021/07/07 09:15:39;;;;;;;10.03;6.37;;;;;;;23.92;64.76;100953.00;1775973;80;21452;-78
2021/07/07 09:18:07;;;;;;;9.45;6.50;;;;;;;23.90;64.98;100956.34;1775348;80;21373;-75
2021/07/07 09:20:40;;;;;;;7.35;5.67;;;;;;;23.90;65.25;100956.83;1775714;80;21378;-74
2021/07/07 09:23:25;;;;;;;10.23;6.72;;;;;;;23.91;65.95;100959.86;1775390;80;20852;-75
2021/07/07 09:26:03;;;;;;;9.60;6.10;;;;;;;23.92;65.98;100965.05;1775552;80;21807;-74
2021/07/07 09:28:38;;;;;;;6.22;5.60;;;;;;;23.90;65.73;100965.73;1775256;80;21343;-75
2021/07/07 09:31:08;;;;;;;8.23;6.12;;;;;;;23.86;65.65;100960.88;1775603;80;21401;-75
2021/07/07 09:33:48;;;;;;;8.70;5.50;;;;;;;23.83;66.36;100962.55;1741690;80;21031;-73
2021/07/07 09:36:19;;;;;;;7.15;5.78;;;;;;;23.80;66.11;100967.74;1707912;83;21374;-74
2021/07/07 09:38:49;;;;;;;7.85;7.15;;;;;;;23.79;66.16;100969.59;1775623;80;21106;-75
2021/07/07 09:41:16;;;;;;;11.55;7.00;;;;;;;23.80;66.37;100970.42;1775267;80;21541;-75
2021/07/07 09:43:54;;;;;;;6.90;6.20;;;;;;;23.82;67.47;100976.45;1775649;80;20972;-73
2021/07/07 09:46:22;;;;;;;9.13;5.10;;;;;;;23.86;67.81;100972.42;1775328;80;21026;-73
2021/07/07 09:48:52;;;;;;;5.70;5.12;;;;;;;23.90;67.71;100972.42;1775463;80;20864;-73
2021/07/07 09:51:18;;;;;;;8.60;4.83;;;;;;;23.93;67.76;100976.59;1775390;80;21076;-76
2021/07/07 09:53:46;;;;;;;5.67;4.67;;;;;;;23.96;67.33;100982.94;1775329;80;21546;-76
2021/07/07 09:56:13;;;;;;;4.47;4.17;;;;;;;23.99;67.28;100982.63;1775385;80;20921;-77
2021/07/07 09:58:41;;;;;;;9.00;4.92;;;;;;;24.04;67.65;100980.25;1775261;80;20964;-75
2021/07/07 10:01:09;;;;;;;5.85;4.75;;;;;;;24.12;67.20;100980.23;1775480;80;20853;-74
2021/07/07 10:03:36;;;;;;;5.53;4.00;;;;;;;24.18;66.82;100982.72;1775595;80;22120;-74
2021/07/07 10:06:03;;;;;;;6.80;4.17;;;;;;;24.23;66.51;100978.18;1774995;80;20991;-74
2021/07/07 10:08:31;;;;;;;4.87;4.47;;;;;;;24.27;66.65;100983.02;1753472;80;20876;-76
2021/07/07 10:10:58;;;;;;;8.83;4.92;;;;;;;24.31;66.53;100986.20;1753500;80;20901;-75
2021/07/07 10:13:26;;;;;;;10.35;4.90;;;;;;;24.34;66.11;100993.37;1775391;80;20984;-75
2021/07/07 10:15:55;;;;;;;7.00;4.97;;;;;;;24.34;65.97;100994.72;1753828;80;21164;-75
2021/07/07 10:18:22;;;;;;;5.78;4.80;;;;;;;24.36;66.08;100995.38;1775509;80;20976;-74
2021/07/07 10:20:49;;;;;;;5.75;4.58;;;;;;;24.36;65.95;100995.89;1775525;80;21003;-74
2021/07/07 10:23:15;;;;;;;10.38;6.42;;;;;;;24.33;65.88;100996.25;1775696;80;20932;-74
2021/07/07 10:25:43;;;;;;;10.48;5.28;;;;;;;24.29;65.82;100998.94;1775223;80;20924;-75
2021/07/07 10:28:13;;;;;;;5.95;5.20;;;;;;;24.24;66.28;101005.33;1775744;80;21367;-73
2021/07/07 10:31:00;;;;;;;7.72;5.33;;;;;;;24.22;66.48;101001.98;1775341;80;20853;-77
2021/07/07 10:33:31;;;;;;;9.93;5.30;;;;;;;24.19;66.63;101005.84;1775230;80;20900;-75
2021/07/07 10:36:23;;;;;;;11.78;6.12;;;;;;;24.17;67.04;101007.35;1775121;80;21406;-75
2021/07/07 10:39:00;;;;;;;7.85;5.22;;;;;;;24.16;67.02;101004.32;1775652;80;21425;-76
2021/07/07 10:41:52;;;;;;;12.85;5.78;;;;;;;24.16;66.93;101009.68;1775664;80;21100;-74
2021/07/07 10:44:39;;;;;;;8.40;5.80;;;;;;;24.14;66.69;101010.36;1738507;82;20869;-75
2021/07/07 10:47:17;;;;;;;9.20;5.35;;;;;;;24.12;66.55;101015.56;1775566;80;20948;-75
2021/07/07 10:49:51;;;;;;;5.37;4.75;;;;;;;24.10;66.69;101006.37;1774796;80;21453;-74
2021/07/07 10:52:34;;;;;;;4.67;4.28;;;;;;;24.08;66.57;101012.41;1775526;80;20876;-74
2021/07/07 10:55:04;;;;;;;11.10;5.10;;;;;;;24.07;66.94;101011.23;1775475;80;21119;-74
2021/07/07 10:57:35;;;;;;;5.37;4.75;;;;;;;24.08;67.01;101010.20;1775433;80;20999;-70
2021/07/07 11:00:34;;;;;;;6.47;5.03;;;;;;;24.09;66.89;101012.72;1775549;80;20904;-72
2021/07/07 11:03:36;;;;;;;9.50;5.17;;;;;;;24.11;67.00;101020.59;1775322;80;20872;-71
2021/07/07 11:06:26;;;;;;;6.83;4.87;;;;;;;24.08;66.90;101013.74;1777383;80;21476;-71
2021/07/07 11:09:13;;;;;;;5.78;4.35;;;;;;;24.08;67.16;101016.42;1778546;80;21136;-71
2021/07/07 11:11:44;;;;;;;7.37;5.15;;;;;;;24.08;67.31;101022.27;1778429;80;20861;-72
2021/07/07 11:14:25;;;;;;;7.60;4.72;;;;;;;24.09;67.32;101025.30;1778683;80;20944;-72
2021/07/07 11:16:57;;;;;;;5.10;4.70;;;;;;;24.10;67.42;101019.77;1779018;80;21405;-72
2021/07/07 11:19:49;;;;;;;8.05;4.83;;;;;;;24.12;67.56;101026.27;1778564;79;20895;-72
2021/07/07 11:22:17;;;;;;;5.15;4.53;;;;;;;24.16;67.09;101028.95;1778872;79;21060;-73
2021/07/07 11:24:46;;;;;;;6.83;4.05;;;;;;;24.19;67.39;101031.31;1778486;80;20935;-73
2021/07/07 11:27:13;;;;;;;5.12;4.58;;;;;;;24.20;67.43;101026.27;1778956;80;21437;-75
2021/07/07 11:29:41;;;;;;;6.45;4.53;;;;;;;24.23;67.27;101033.95;1778748;80;20940;-72
2021/07/07 11:32:42;;;;;;;4.97;4.47;;;;;;;24.27;67.59;101027.76;1778587;80;20848;-74
2021/07/07 11:35:16;;;;;;;7.85;4.42;;;;;;;24.28;67.46;101034.78;1729635;82;21833;-73
2021/07/07 11:37:44;;;;;;;5.90;4.33;;;;;;;24.31;67.54;101033.94;1730030;83;21058;-73